Time;durP1;ratioP1;P1;durP2;ratioP2;P2;SDS_P1;SDS_P2;PMS_P1;PMS_P2;Temp;Humidity;BMP_temperature;BMP_pressure;BME280_temperature;BME280_humidity;BME280_pressure;Samples;Min_cycle;Max_cycle;Signal;HPM_P1;HPM_P2
2021/11/13 00:00:13;;;;;;;;;;;21.80;69.70;;;;;;696610;28;798;-83
2021/11/13 00:00:35;;;;;;;;;;;21.80;69.70;;;;;;696333;28;1101;-79
2021/11/13 00:00:56;;;;;;;;;;;21.80;69.80;;;;;;693713;28;1525;-80
2021/11/13 00:01:16;;;;;;;;;;;21.80;69.70;;;;;;693929;28;861;-81
2021/11/13 00:01:37;;;;;;;;;;;21.80;69.70;;;;;;693219;28;952;-81
2021/11/13 00:01:58;;;;;;;;;;;21.80;69.70;;;;;;691163;28;882;-80
2021/11/13 00:02:18;;;;;;;;;;;21.80;69.70;;;;;;691148;28;823;-81
2021/11/13 00:02:39;;;;;;;;;;;21.80;69.70;;;;;;691355;28;844;-82
2021/11/13 00:02:59;;;;;;;;;;;21.80;69.70;;;;;;694015;28;830;-80
2021/11/13 00:03:20;;;;;;;;;;;21.80;69.70;;;;;;693914;28;822;-81
2021/11/13 00:03:41;;;;;;;;;;;21.80;69.70;;;;;;696425;28;1445;-81
2021/11/13 00:04:02;;;;;;;;;;;21.80;69.60;;;;;;696562;28;865;-81
2021/11/13 00:04:22;;;;;;;;;;;21.80;69.70;;;;;;696560;28;849;-79
2021/11/13 00:04:43;;;;;;;;;;;21.80;69.60;;;;;;696497;28;1910;-79
2021/11/13 00:05:04;;;;;;;;;;;21.80;69.60;;;;;;696480;28;932;-82
2021/11/13 00:05:25;;;;;;;;;;;21.80;69.60;;;;;;696113;28;942;-80
2021/11/13 00:05:45;;;;;;;;;;;21.80;69.70;;;;;;694145;28;835;-80
2021/11/13 00:06:06;;;;;;;;;;;21.80;69.70;;;;;;694077;28;834;-82
2021/11/13 00:06:27;;;;;;;;;;;21.80;69.70;;;;;;694025;28;775;-85
2021/11/13 00:06:47;;;;;;;;;;;21.80;69.70;;;;;;696675;28;1320;-83
2021/11/13 00:07:08;;;;;;;;;;;21.80;69.70;;;;;;696686;28;861;-91
2021/11/13 00:07:28;;;;;;;;;;;21.80;69.70;;;;;;696555;28;794;-89
2021/11/13 00:07:49;;;;;;;;;;;21.80;69.60;;;;;;696918;28;802;-90
2021/11/13 00:08:10;;;;;;;;;;;21.80;69.70;;;;;;696819;28;853;-83
2021/11/13 00:08:31;;;;;;;;;;;21.80;69.70;;;;;;696125;28;802;-80
2021/11/13 00:08:51;;;;;;;;;;;21.80;69.70;;;;;;694066;28;902;-82
2021/11/13 00:09:14;;;;;;;;;;;21.80;69.70;;;;;;694175;28;819;-80
2021/11/13 00:09:35;;;;;;;;;;;21.80;69.70;;;;;;694014;28;941;-82
2021/11/13 00:09:55;;;;;;;;;;;21.80;69.70;;;;;;693976;28;874;-81
2021/11/13 00:10:18;;;;;;;;;;;21.80;69.70;;;;;;693642;28;1256;-81
2021/11/13 00:10:39;;;;;;;;;;;21.80;69.60;;;;;;693980;28;810;-87
2021/11/13 00:11:00;;;;;;;;;;;21.80;69.60;;;;;;694041;28;918;-87
2021/11/13 00:11:21;;;;;;;;;;;21.80;69.60;;;;;;693887;28;861;-85
2021/11/13 00:11:42;;;;;;;;;;;21.80;69.50;;;;;;693885;28;838;-79
2021/11/13 00:12:03;;;;;;;;;;;21.80;69.60;;;;;;693736;28;1425;-79
2021/11/13 00:12:24;;;;;;;;;;;21.80;69.50;;;;;;694069;28;893;-88
2021/11/13 00:12:44;;;;;;;;;;;21.80;69.50;;;;;;694253;28;799;-89
2021/11/13 00:13:06;;;;;;;;;;;21.80;69.50;;;;;;694121;28;877;-84
2021/11/13 00:13:27;;;;;;;;;;;21.80;69.40;;;;;;694041;28;806;-82
2021/11/13 00:13:52;;;;;;;;;;;21.80;69.40;;;;;;693977;28;826;-87
2021/11/13 00:14:16;;;;;;;;;;;21.80;69.40;;;;;;694050;28;806;-90
2021/11/13 00:14:37;;;;;;;;;;;21.90;69.50;;;;;;696528;28;1638;-88
2021/11/13 00:15:01;;;;;;;;;;;21.80;69.40;;;;;;696854;28;854;-83
2021/11/13 00:15:21;;;;;;;;;;;21.90;69.40;;;;;;696657;28;790;-86
2021/11/13 00:15:42;;;;;;;;;;;21.90;69.40;;;;;;696571;28;794;-91
2021/11/13 00:16:03;;;;;;;;;;;21.90;69.40;;;;;;696762;28;846;-91
2021/11/13 00:16:24;;;;;;;;;;;21.90;69.40;;;;;;695901;28;914;-92
2021/11/13 00:16:45;;;;;;;;;;;21.80;69.30;;;;;;694056;28;914;-86
2021/11/13 00:17:06;;;;;;;;;;;21.90;69.40;;;;;;693990;28;848;-85
2021/11/13 00:17:27;;;;;;;;;;;21.90;69.40;;;;;;694113;28;846;-83
2021/11/13 00:17:50;;;;;;;;;;;21.80;69.30;;;;;;694012;28;806;-92
2021/11/13 00:18:11;;;;;;;;;;;21.90;69.40;;;;;;694108;28;891;-91
2021/11/13 00:18:35;;;;;;;;;;;21.90;69.30;;;;;;694017;28;791;-89
2021/11/13 00:18:55;;;;;;;;;;;21.80;69.30;;;;;;694178;28;775;-92
2021/11/13 00:19:16;;;;;;;;;;;21.80;69.20;;;;;;694135;28;890;-80
2021/11/13 00:19:36;;;;;;;;;;;21.90;69.30;;;;;;694121;28;807;-89
2021/11/13 00:19:57;;;;;;;;;;;21.90;69.30;;;;;;694048;28;862;-92
2021/11/13 00:20:18;;;;;;;;;;;21.90;69.30;;;;;;694161;28;780;-90
2021/11/13 00:20:39;;;;;;;;;;;21.80;69.20;;;;;;694027;28;877;-94
2021/11/13 00:21:00;;;;;;;;;;;21.90;69.20;;;;;;694105;28;851;-92
2021/11/13 00:21:20;;;;;;;;;;;21.90;69.20;;;;;;694115;28;814;-89
2021/11/13 00:21:41;;;;;;;;;;;21.90;69.20;;;;;;694415;28;917;-92
2021/11/13 00:22:01;;;;;;;;;;;21.90;69.20;;;;;;693980;28;1032;-93
2021/11/13 00:22:22;;;;;;;;;;;21.90;69.20;;;;;;694150;28;815;-93
2021/11/13 00:22:43;;;;;;;;;;;21.80;69.10;;;;;;694141;28;853;-89
2021/11/13 00:23:04;;;;;;;;;;;21.90;69.10;;;;;;694012;28;945;-87
2021/11/13 00:23:24;;;;;;;;;;;21.90;69.20;;;;;;694130;28;779;-91
2021/11/13 00:23:45;;;;;;;;;;;21.90;69.20;;;;;;694408;28;803;-93
2021/11/13 00:24:06;;;;;;;;;;;21.90;69.10;;;;;;696483;28;1543;-87
2021/11/13 00:24:26;;;;;;;;;;;21.90;69.10;;;;;;696694;28;802;-87
2021/11/13 00:24:47;;;;;;;;;;;21.90;69.10;;;;;;696635;28;1939;-92
2021/11/13 00:25:07;;;;;;;;;;;21.90;69.10;;;;;;696703;28;853;-90
2021/11/13 00:25:28;;;;;;;;;;;21.90;69.10;;;;;;696808;28;973;-90
2021/11/13 00:25:49;;;;;;;;;;;21.90;69.00;;;;;;696412;28;937;-93
2021/11/13 00:26:09;;;;;;;;;;;21.90;69.10;;;;;;694225;28;799;-92
2021/11/13 00:26:30;;;;;;;;;;;21.90;69.10;;;;;;694129;28;795;-90
2021/11/13 00:26:51;;;;;;;;;;;21.90;69.10;;;;;;694125;28;1176;-86
2021/11/13 00:27:11;;;;;;;;;;;21.90;69.10;;;;;;694012;28;830;-92
2021/11/13 00:27:32;;;;;;;;;;;21.90;69.20;;;;;;693991;28;787;-84
2021/11/13 00:27:52;;;;;;;;;;;21.90;69.10;;;;;;694092;28;806;-82
2021/11/13 00:28:13;;;;;;;;;;;21.90;69.10;;;;;;693972;28;877;-84
2021/11/13 00:28:33;;;;;;;;;;;21.90;69.10;;;;;;693907;28;815;-83
2021/11/13 00:28:54;;;;;;;;;;;21.90;69.10;;;;;;694040;28;871;-82
2021/11/13 00:29:15;;;;;;;;;;;21.90;69.10;;;;;;695575;28;1377;-83
2021/11/13 00:29:35;;;;;;;;;;;21.90;69.10;;;;;;694622;28;956;-84
2021/11/13 00:29:56;;;;;;;;;;;21.90;69.10;;;;;;694201;28;854;-87
2021/11/13 00:30:17;;;;;;;;;;;21.90;69.00;;;;;;693925;28;902;-83
2021/11/13 00:30:41;;;;;;;;;;;21.90;69.00;;;;;;693864;28;894;-81
2021/11/13 00:31:01;;;;;;;;;;;21.90;69.00;;;;;;693072;28;933;-83
2021/11/13 00:31:22;;;;;;;;;;;21.90;69.00;;;;;;691398;28;807;-87
2021/11/13 00:31:43;;;;;;;;;;;21.90;69.10;;;;;;691385;28;882;-88
2021/11/13 00:32:04;;;;;;;;;;;21.90;69.00;;;;;;691395;28;1502;-82
2021/11/13 00:32:24;;;;;;;;;;;21.90;69.00;;;;;;691330;28;981;-82
2021/11/13 00:32:45;;;;;;;;;;;21.90;69.00;;;;;;691303;28;806;-82
2021/11/13 00:33:06;;;;;;;;;;;21.80;68.90;;;;;;691240;28;957;-81
2021/11/13 00:33:27;;;;;;;;;;;21.90;69.00;;;;;;691279;28;905;-82
2021/11/13 00:33:47;;;;;;;;;;;21.90;68.90;;;;;;691370;28;802;-82
2021/11/13 00:34:08;;;;;;;;;;;21.90;69.00;;;;;;691164;28;858;-81
2021/11/13 00:34:29;;;;;;;;;;;21.90;68.90;;;;;;691235;28;935;-80
2021/11/13 00:34:49;;;;;;;;;;;21.90;69.00;;;;;;691367;28;949;-81
2021/11/13 00:35:10;;;;;;;;;;;21.90;68.90;;;;;;691222;28;969;-81
2021/11/13 00:35:31;;;;;;;;;;;21.90;68.90;;;;;;691196;28;870;-85
2021/11/13 00:35:52;;;;;;;;;;;21.80;68.90;;;;;;691273;28;901;-81
2021/11/13 00:36:12;;;;;;;;;;;21.90;68.90;;;;;;691173;28;894;-79
2021/11/13 00:36:33;;;;;;;;;;;21.90;68.90;;;;;;691146;28;815;-81
2021/11/13 00:36:53;;;;;;;;;;;21.80;69.80;;;;;;691173;28;894;-79
2021/11/13 00:37:14;;;;;;;;;;;21.80;68.80;;;;;;691166;28;802;-81
2021/11/13 00:37:35;;;;;;;;;;;21.80;68.80;;;;;;691246;28;810;-82
2021/11/13 00:37:56;;;;;;;;;;;21.80;68.80;;;;;;691209;28;1024;-80
2021/11/13 00:38:16;;;;;;;;;;;21.80;68.90;;;;;;691164;28;815;-81
2021/11/13 00:38:37;;;;;;;;;;;21.90;68.90;;;;;;693569;28;1556;-82
2021/11/13 00:38:57;;;;;;;;;;;21.80;68.80;;;;;;693814;28;791;-86
2021/11/13 00:39:18;;;;;;;;;;;21.90;68.90;;;;;;693895;28;929;-80
2021/11/13 00:39:39;;;;;;;;;;;21.90;68.90;;;;;;693706;28;790;-82
2021/11/13 00:40:00;;;;;;;;;;;21.90;68.90;;;;;;693757;28;806;-89
2021/11/13 00:40:20;;;;;;;;;;;21.90;68.90;;;;;;693531;28;803;-82
2021/11/13 00:40:41;;;;;;;;;;;21.80;68.90;;;;;;691122;28;830;-82
2021/11/13 00:41:02;;;;;;;;;;;21.90;68.90;;;;;;691009;28;909;-80
2021/11/13 00:41:22;;;;;;;;;;;21.90;68.90;;;;;;691282;28;939;-82
2021/11/13 00:41:43;;;;;;;;;;;21.90;68.80;;;;;;691242;28;810;-80
2021/11/13 00:42:04;;;;;;;;;;;21.90;68.80;;;;;;691125;28;834;-84
2021/11/13 00:42:24;;;;;;;;;;;21.80;68.70;;;;;;691219;28;815;-81
2021/11/13 00:42:45;;;;;;;;;;;21.80;68.70;;;;;;691131;28;914;-82
2021/11/13 00:43:06;;;;;;;;;;;21.90;68.80;;;;;;691217;28;783;-81
2021/11/13 00:43:30;;;;;;;;;;;21.80;68.70;;;;;;691357;28;858;-81
2021/11/13 00:43:50;;;;;;;;;;;21.90;68.80;;;;;;691224;28;922;-82
2021/11/13 00:44:11;;;;;;;;;;;21.90;68.80;;;;;;691206;28;827;-83
2021/11/13 00:44:33;;;;;;;;;;;21.90;68.80;;;;;;691039;28;1895;-82
2021/11/13 00:44:54;;;;;;;;;;;21.80;68.70;;;;;;691304;28;859;-82
2021/11/13 00:45:15;;;;;;;;;;;21.80;68.70;;;;;;691158;28;795;-84
2021/11/13 00:45:35;;;;;;;;;;;21.80;68.70;;;;;;691133;28;961;-81
2021/11/13 00:45:56;;;;;;;;;;;21.80;68.70;;;;;;691232;28;1395;-81
2021/11/13 00:46:16;;;;;;;;;;;21.80;68.70;;;;;;691196;28;839;-80
2021/11/13 00:46:37;;;;;;;;;;;21.80;68.70;;;;;;691185;28;514;-84
2021/11/13 00:46:57;;;;;;;;;;;21.80;68.70;;;;;;691135;28;874;-88
2021/11/13 00:47:18;;;;;;;;;;;21.80;68.70;;;;;;691189;28;858;-81
2021/11/13 00:47:39;;;;;;;;;;;21.90;68.80;;;;;;691143;28;874;-86
2021/11/13 00:47:59;;;;;;;;;;;21.90;68.70;;;;;;691162;28;933;-82
2021/11/13 00:48:20;;;;;;;;;;;21.80;68.50;;;;;;691268;28;1408;-81
2021/11/13 00:48:40;;;;;;;;;;;21.80;68.50;;;;;;691171;28;886;-82
2021/11/13 00:49:01;;;;;;;;;;;21.80;68.50;;;;;;691026;28;933;-81
2021/11/13 00:49:21;;;;;;;;;;;21.80;69.40;;;;;;691200;28;925;-85
2021/11/13 00:49:42;;;;;;;;;;;21.80;68.40;;;;;;691256;28;878;-81
2021/11/13 00:50:03;;;;;;;;;;;21.80;68.50;;;;;;691137;28;922;-87
2021/11/13 00:50:24;;;;;;;;;;;21.80;68.50;;;;;;691278;28;799;-82
2021/11/13 00:50:45;;;;;;;;;;;21.80;68.50;;;;;;691142;28;929;-84
2021/11/13 00:51:05;;;;;;;;;;;21.80;68.50;;;;;;691180;28;941;-81
2021/11/13 00:51:27;;;;;;;;;;;21.80;68.50;;;;;;691257;28;961;-81
2021/11/13 00:51:47;;;;;;;;;;;21.80;68.50;;;;;;691186;28;891;-83
2021/11/13 00:52:08;;;;;;;;;;;21.80;68.60;;;;;;691143;28;914;-81
2021/11/13 00:52:29;;;;;;;;;;;21.80;68.60;;;;;;691277;28;818;-84
2021/11/13 00:52:49;;;;;;;;;;;21.80;68.60;;;;;;691303;28;858;-81
2021/11/13 00:53:10;;;;;;;;;;;21.80;68.50;;;;;;690930;28;1081;-80
2021/11/13 00:53:32;;;;;;;;;;;21.80;68.60;;;;;;691149;28;780;-80
2021/11/13 00:53:53;;;;;;;;;;;21.70;68.50;;;;;;691322;28;803;-88
2021/11/13 00:54:13;;;;;;;;;;;21.70;68.60;;;;;;691143;28;795;-81
2021/11/13 00:54:34;;;;;;;;;;;21.70;69.60;;;;;;691181;28;890;-86
2021/11/13 00:54:55;;;;;;;;;;;21.80;68.60;;;;;;691404;28;934;-80
2021/11/13 00:55:17;;;;;;;;;;;21.80;68.70;;;;;;690973;28;833;-91
2021/11/13 00:55:38;;;;;;;;;;;21.70;68.70;;;;;;691120;28;798;-81
2021/11/13 00:55:59;;;;;;;;;;;21.70;68.70;;;;;;691137;28;846;-89
2021/11/13 00:56:19;;;;;;;;;;;21.70;68.70;;;;;;691140;28;941;-89
2021/11/13 00:56:40;;;;;;;;;;;21.70;68.70;;;;;;692119;28;791;-81
2021/11/13 00:57:01;;;;;;;;;;;21.70;68.60;;;;;;693305;28;877;-83
2021/11/13 00:57:21;;;;;;;;;;;21.70;68.70;;;;;;693654;28;989;-81
2021/11/13 00:57:42;;;;;;;;;;;21.70;68.80;;;;;;695827;28;1621;-82
2021/11/13 00:58:03;;;;;;;;;;;21.70;68.60;;;;;;696133;28;904;-82
2021/11/13 00:58:24;;;;;;;;;;;21.70;68.70;;;;;;696290;28;881;-81
2021/11/13 00:58:44;;;;;;;;;;;21.70;68.60;;;;;;695869;28;946;-81
2021/11/13 00:59:05;;;;;;;;;;;21.70;68.60;;;;;;696059;28;942;-81
2021/11/13 00:59:26;;;;;;;;;;;21.70;68.80;;;;;;695389;28;799;-84
2021/11/13 00:59:46;;;;;;;;;;;21.70;68.70;;;;;;693130;28;878;-83
2021/11/13 01:00:08;;;;;;;;;;;21.70;68.60;;;;;;693562;28;956;-84
2021/11/13 01:00:29;;;;;;;;;;;21.70;68.70;;;;;;693102;28;934;-79
2021/11/13 01:00:49;;;;;;;;;;;21.70;69.60;;;;;;693516;28;893;-81
2021/11/13 01:01:10;;;;;;;;;;;21.70;68.70;;;;;;693302;28;831;-83
2021/11/13 01:01:30;;;;;;;;;;;21.70;68.70;;;;;;690480;28;1209;-83
2021/11/13 01:01:51;;;;;;;;;;;21.70;68.70;;;;;;689728;28;954;-83
2021/11/13 01:02:11;;;;;;;;;;;21.70;68.70;;;;;;690441;28;795;-84
2021/11/13 01:02:32;;;;;;;;;;;21.70;68.70;;;;;;690587;28;795;-85
2021/11/13 01:02:53;;;;;;;;;;;21.70;68.60;;;;;;690771;28;874;-83
2021/11/13 01:03:13;;;;;;;;;;;21.70;68.60;;;;;;690855;28;764;-81
2021/11/13 01:03:34;;;;;;;;;;;21.70;68.70;;;;;;693659;28;898;-80
2021/11/13 01:04:04;;;;;;;;;;;21.70;68.60;;;;;;692424;28;1052;-88
2021/11/13 01:04:25;;;;;;;;;;;21.70;68.80;;;;;;692967;28;1463;-81
2021/11/13 01:04:45;;;;;;;;;;;21.70;68.70;;;;;;693128;28;1948;-83
2021/11/13 01:05:06;;;;;;;;;;;21.70;68.70;;;;;;693224;28;752;-84
2021/11/13 01:05:27;;;;;;;;;;;21.70;68.50;;;;;;693396;28;954;-82
2021/11/13 01:05:48;;;;;;;;;;;21.70;68.70;;;;;;693309;28;897;-83
2021/11/13 01:06:09;;;;;;;;;;;21.70;68.60;;;;;;692886;28;917;-81
2021/11/13 01:06:30;;;;;;;;;;;21.70;68.70;;;;;;693051;28;1044;-91
2021/11/13 01:06:51;;;;;;;;;;;21.70;68.60;;;;;;691473;28;819;-88
2021/11/13 01:07:11;;;;;;;;;;;21.70;68.70;;;;;;691537;28;961;-92
2021/11/13 01:07:32;;;;;;;;;;;21.70;68.70;;;;;;691481;28;818;-87
2021/11/13 01:07:55;;;;;;;;;;;21.70;68.70;;;;;;692161;28;881;-81
2021/11/13 01:08:16;;;;;;;;;;;21.60;68.60;;;;;;692392;28;822;-91
2021/11/13 01:08:37;;;;;;;;;;;21.70;68.70;;;;;;691940;28;849;-86
2021/11/13 01:08:57;;;;;;;;;;;21.70;68.70;;;;;;691806;28;803;-89
2021/11/13 01:09:18;;;;;;;;;;;21.70;68.60;;;;;;691861;28;877;-88
2021/11/13 01:09:38;;;;;;;;;;;21.60;68.60;;;;;;691922;28;975;-87
2021/11/13 01:09:59;;;;;;;;;;;21.60;69.60;;;;;;692565;28;802;-83
2021/11/13 01:10:20;;;;;;;;;;;21.70;68.60;;;;;;693166;28;925;-88
2021/11/13 01:10:40;;;;;;;;;;;21.60;68.60;;;;;;691961;28;881;-92
2021/11/13 01:11:01;;;;;;;;;;;21.60;68.60;;;;;;692109;28;822;-91
2021/11/13 01:11:23;;;;;;;;;;;21.70;68.60;;;;;;691978;28;988;-87
2021/11/13 01:11:44;;;;;;;;;;;21.60;68.50;;;;;;691860;28;866;-87
2021/11/13 01:12:05;;;;;;;;;;;21.70;68.50;;;;;;691880;28;845;-89
2021/11/13 01:12:26;;;;;;;;;;;21.70;68.60;;;;;;691930;28;893;-91
2021/11/13 01:12:48;;;;;;;;;;;21.70;68.60;;;;;;691745;28;913;-89
2021/11/13 01:13:08;;;;;;;;;;;21.60;68.60;;;;;;691728;28;803;-88
2021/11/13 01:13:29;;;;;;;;;;;21.60;68.60;;;;;;691766;28;802;-81
2021/11/13 01:13:50;;;;;;;;;;;21.60;68.60;;;;;;691886;28;906;-88
2021/11/13 01:14:10;;;;;;;;;;;21.70;68.70;;;;;;691769;28;898;-81
2021/11/13 01:14:36;;;;;;;;;;;21.60;68.60;;;;;;691601;28;934;-91
2021/11/13 01:14:57;;;;;;;;;;;21.60;68.70;;;;;;691729;28;858;-82
2021/11/13 01:15:18;;;;;;;;;;;21.60;68.60;;;;;;691889;28;846;-86
2021/11/13 01:15:39;;;;;;;;;;;21.60;68.60;;;;;;691686;28;787;-89
2021/11/13 01:16:00;;;;;;;;;;;21.60;68.50;;;;;;691793;28;861;-85
2021/11/13 01:16:21;;;;;;;;;;;21.60;68.50;;;;;;691841;28;806;-92
2021/11/13 01:16:41;;;;;;;;;;;21.60;68.60;;;;;;688636;28;1787;-89
2021/11/13 01:17:02;;;;;;;;;;;21.60;68.50;;;;;;688809;28;783;-90
2021/11/13 01:17:22;;;;;;;;;;;21.60;68.50;;;;;;688825;28;1424;-87
2021/11/13 01:17:43;;;;;;;;;;;21.60;68.60;;;;;;688860;28;901;-88
2021/11/13 01:18:04;;;;;;;;;;;21.60;68.60;;;;;;688814;28;791;-92
2021/11/13 01:18:25;;;;;;;;;;;21.60;68.50;;;;;;689245;28;843;-88
2021/11/13 01:18:48;;;;;;;;;;;21.60;68.60;;;;;;691633;28;889;-85
2021/11/13 01:19:10;;;;;;;;;;;21.60;68.50;;;;;;691704;28;874;-89
2021/11/13 01:19:31;;;;;;;;;;;21.60;68.60;;;;;;691832;28;890;-90
2021/11/13 01:19:51;;;;;;;;;;;21.60;68.50;;;;;;691876;28;846;-90
2021/11/13 01:20:13;;;;;;;;;;;21.60;68.50;;;;;;691677;28;1177;-91
2021/11/13 01:20:34;;;;;;;;;;;21.60;68.40;;;;;;691581;28;795;-89
2021/11/13 01:20:55;;;;;;;;;;;21.60;68.50;;;;;;691606;28;874;-91
2021/11/13 01:21:16;;;;;;;;;;;21.60;68.50;;;;;;691747;28;930;-81
2021/11/13 01:21:37;;;;;;;;;;;21.60;68.50;;;;;;691814;28;883;-85
2021/11/13 01:22:03;;;;;;;;;;;21.60;68.50;;;;;;691690;28;894;-89
2021/11/13 01:22:24;;;;;;;;;;;21.60;68.50;;;;;;691685;28;913;-87
2021/11/13 01:22:45;;;;;;;;;;;21.60;68.50;;;;;;691590;28;862;-91
2021/11/13 01:23:06;;;;;;;;;;;21.60;68.50;;;;;;691543;28;970;-87
2021/11/13 01:23:26;;;;;;;;;;;21.60;68.60;;;;;;691759;28;918;-88
2021/11/13 01:23:47;;;;;;;;;;;21.60;68.50;;;;;;694260;28;1327;-91
2021/11/13 01:24:07;;;;;;;;;;;21.60;68.50;;;;;;694256;28;802;-89
2021/11/13 01:24:28;;;;;;;;;;;21.60;68.50;;;;;;694239;28;811;-90
2021/11/13 01:24:48;;;;;;;;;;;21.60;68.50;;;;;;694230;28;1902;-89
2021/11/13 01:25:09;;;;;;;;;;;21.60;68.50;;;;;;694193;28;866;-90
2021/11/13 01:25:30;;;;;;;;;;;21.60;68.40;;;;;;693944;28;957;-89
2021/11/13 01:25:51;;;;;;;;;;;21.60;68.40;;;;;;691913;28;870;-83
2021/11/13 01:26:11;;;;;;;;;;;21.60;68.50;;;;;;691620;28;902;-89
2021/11/13 01:26:33;;;;;;;;;;;21.60;68.50;;;;;;691691;28;869;-85
2021/11/13 01:26:53;;;;;;;;;;;21.60;68.50;;;;;;691689;28;858;-91
2021/11/13 01:27:14;;;;;;;;;;;21.60;68.50;;;;;;691644;28;953;-85
2021/11/13 01:27:35;;;;;;;;;;;21.60;68.40;;;;;;691663;28;878;-90
2021/11/13 01:27:56;;;;;;;;;;;21.60;68.40;;;;;;691731;28;956;-87
2021/11/13 01:28:17;;;;;;;;;;;21.60;68.50;;;;;;694368;28;846;-87
2021/11/13 01:28:37;;;;;;;;;;;21.60;68.50;;;;;;694161;28;838;-90
2021/11/13 01:28:58;;;;;;;;;;;21.60;68.40;;;;;;694179;28;916;-85
2021/11/13 01:29:18;;;;;;;;;;;21.60;68.50;;;;;;694214;28;976;-83
2021/11/13 01:29:39;;;;;;;;;;;21.60;68.40;;;;;;694240;28;818;-91
2021/11/13 01:29:59;;;;;;;;;;;21.60;68.60;;;;;;693880;28;847;-89
2021/11/13 01:30:20;;;;;;;;;;;21.60;68.50;;;;;;691680;28;886;-89
2021/11/13 01:30:41;;;;;;;;;;;21.60;68.50;;;;;;691602;28;786;-91
2021/11/13 01:31:02;;;;;;;;;;;21.60;68.50;;;;;;691671;28;973;-88
2021/11/13 01:31:22;;;;;;;;;;;21.60;68.40;;;;;;691782;28;794;-89
2021/11/13 01:31:43;;;;;;;;;;;21.60;68.50;;;;;;691643;28;913;-93
2021/11/13 01:32:04;;;;;;;;;;;21.60;68.40;;;;;;691623;28;898;-93
2021/11/13 01:32:24;;;;;;;;;;;21.60;68.40;;;;;;691871;28;819;-91
2021/11/13 01:32:45;;;;;;;;;;;21.60;68.40;;;;;;688549;28;1237;-84
2021/11/13 01:33:06;;;;;;;;;;;21.60;68.50;;;;;;688770;28;862;-93
2021/11/13 01:33:26;;;;;;;;;;;21.60;68.50;;;;;;688777;28;837;-86
2021/11/13 01:33:47;;;;;;;;;;;21.60;68.50;;;;;;688938;28;914;-88
2021/11/13 01:34:07;;;;;;;;;;;21.60;68.60;;;;;;688826;28;806;-87
2021/11/13 01:34:28;;;;;;;;;;;21.50;68.40;;;;;;689136;28;881;-89
2021/11/13 01:34:48;;;;;;;;;;;21.50;68.50;;;;;;691600;28;813;-90
2021/11/13 01:35:10;;;;;;;;;;;21.60;68.50;;;;;;691523;28;933;-92
2021/11/13 01:35:30;;;;;;;;;;;21.60;68.50;;;;;;691576;28;775;-91
2021/11/13 01:35:51;;;;;;;;;;;21.60;68.60;;;;;;691719;28;862;-90
2021/11/13 01:36:12;;;;;;;;;;;21.60;68.60;;;;;;691697;28;1145;-87
2021/11/13 01:36:32;;;;;;;;;;;21.50;68.50;;;;;;691657;28;842;-88
2021/11/13 01:36:53;;;;;;;;;;;21.50;68.50;;;;;;691751;28;795;-88
2021/11/13 01:37:14;;;;;;;;;;;21.50;68.50;;;;;;691639;28;882;-84
2021/11/13 01:37:35;;;;;;;;;;;21.60;68.50;;;;;;691688;28;818;-88
2021/11/13 01:37:55;;;;;;;;;;;21.50;68.40;;;;;;691738;28;782;-92
2021/11/13 01:38:16;;;;;;;;;;;21.50;68.50;;;;;;691756;28;975;-88
2021/11/13 01:38:38;;;;;;;;;;;21.50;68.50;;;;;;691623;28;846;-86
2021/11/13 01:38:58;;;;;;;;;;;21.60;68.60;;;;;;691594;28;875;-92
2021/11/13 01:39:19;;;;;;;;;;;21.50;68.40;;;;;;691698;28;922;-85
2021/11/13 01:39:40;;;;;;;;;;;21.50;68.50;;;;;;691674;28;807;-88
2021/11/13 01:40:01;;;;;;;;;;;21.60;68.60;;;;;;691621;28;937;-92
2021/11/13 01:40:23;;;;;;;;;;;21.50;68.50;;;;;;691715;28;1691;-90
2021/11/13 01:40:44;;;;;;;;;;;21.50;68.50;;;;;;691623;28;791;-91
2021/11/13 01:41:06;;;;;;;;;;;21.50;68.50;;;;;;691670;28;863;-87
2021/11/13 01:41:26;;;;;;;;;;;21.50;68.50;;;;;;688812;28;874;-86
2021/11/13 01:41:48;;;;;;;;;;;21.60;68.50;;;;;;688821;28;851;-85
2021/11/13 01:42:09;;;;;;;;;;;21.60;68.60;;;;;;688785;28;871;-86
2021/11/13 01:42:30;;;;;;;;;;;21.50;68.50;;;;;;688691;28;861;-91
2021/11/13 01:42:53;;;;;;;;;;;21.60;68.60;;;;;;688916;28;949;-86
2021/11/13 01:43:14;;;;;;;;;;;21.60;68.50;;;;;;689615;28;827;-83
2021/11/13 01:43:35;;;;;;;;;;;21.50;68.50;;;;;;691606;28;787;-86
2021/11/13 01:43:56;;;;;;;;;;;21.50;68.50;;;;;;691780;28;1294;-92
2021/11/13 01:44:16;;;;;;;;;;;21.50;68.40;;;;;;691695;28;807;-89
2021/11/13 01:44:37;;;;;;;;;;;21.60;68.50;;;;;;688482;28;1906;-92
2021/11/13 01:44:58;;;;;;;;;;;21.50;68.40;;;;;;687891;28;1335;-87
2021/11/13 01:45:19;;;;;;;;;;;21.50;68.40;;;;;;688566;28;1221;-87
2021/11/13 01:45:40;;;;;;;;;;;21.50;68.40;;;;;;688693;28;826;-86
2021/11/13 01:46:01;;;;;;;;;;;21.50;68.40;;;;;;688473;28;1120;-88
2021/11/13 01:46:22;;;;;;;;;;;21.60;68.60;;;;;;689027;28;1111;-87
2021/11/13 01:46:42;;;;;;;;;;;21.60;68.50;;;;;;690892;28;823;-87
2021/11/13 01:47:03;;;;;;;;;;;21.60;68.50;;;;;;688629;28;1091;-85
2021/11/13 01:47:24;;;;;;;;;;;21.60;68.50;;;;;;688759;28;815;-86
2021/11/13 01:47:47;;;;;;;;;;;21.50;68.40;;;;;;691214;28;1193;-87
2021/11/13 01:48:07;;;;;;;;;;;21.60;68.40;;;;;;691929;28;803;-89
2021/11/13 01:48:29;;;;;;;;;;;21.60;68.40;;;;;;694108;28;861;-87
2021/11/13 01:48:50;;;;;;;;;;;21.60;68.30;;;;;;694052;28;837;-89
2021/11/13 01:49:10;;;;;;;;;;;21.60;68.30;;;;;;693975;28;854;-87
2021/11/13 01:49:31;;;;;;;;;;;21.50;68.30;;;;;;693302;28;472;-87
2021/11/13 01:49:52;;;;;;;;;;;21.50;68.30;;;;;;691534;28;530;-85
2021/11/13 01:50:15;;;;;;;;;;;21.60;68.30;;;;;;691246;28;903;-87
2021/11/13 01:50:38;;;;;;;;;;;21.50;68.20;;;;;;688469;28;1308;-87
2021/11/13 01:50:59;;;;;;;;;;;21.50;68.30;;;;;;688652;28;822;-85
2021/11/13 01:51:24;;;;;;;;;;;21.50;68.30;;;;;;688723;28;847;-87
2021/11/13 01:51:46;;;;;;;;;;;21.50;68.20;;;;;;688690;28;779;-88
2021/11/13 01:52:10;;;;;;;;;;;21.50;68.30;;;;;;688577;28;1342;-84
2021/11/13 01:52:31;;;;;;;;;;;21.60;68.30;;;;;;690384;28;1267;-86
2021/11/13 01:52:52;;;;;;;;;;;21.60;68.30;;;;;;691434;28;914;-86
2021/11/13 01:53:12;;;;;;;;;;;21.50;68.20;;;;;;691055;28;1134;-86
2021/11/13 01:53:33;;;;;;;;;;;21.60;68.30;;;;;;691347;28;901;-87
2021/11/13 01:53:55;;;;;;;;;;;21.50;68.20;;;;;;690647;28;1009;-86
2021/11/13 01:54:17;;;;;;;;;;;21.50;68.20;;;;;;689070;28;1060;-87
2021/11/13 01:54:40;;;;;;;;;;;21.60;68.30;;;;;;691481;28;850;-86
2021/11/13 01:55:00;;;;;;;;;;;21.60;68.30;;;;;;691294;28;1118;-86
2021/11/13 01:55:21;;;;;;;;;;;21.50;68.20;;;;;;691301;28;1177;-86
2021/11/13 01:55:42;;;;;;;;;;;21.60;68.30;;;;;;691414;28;870;-85
2021/11/13 01:56:03;;;;;;;;;;;21.50;68.30;;;;;;691245;28;1421;-85
2021/11/13 01:56:24;;;;;;;;;;;21.50;68.30;;;;;;691471;28;1133;-86
2021/11/13 01:56:44;;;;;;;;;;;21.50;68.20;;;;;;691346;28;862;-88
2021/11/13 01:57:09;;;;;;;;;;;21.60;68.30;;;;;;691284;28;779;-84
2021/11/13 01:57:43;;;;;;;;;;;21.60;68.30;;;;;;691339;28;1088;-84
2021/11/13 01:58:05;;;;;;;;;;;21.60;68.30;;;;;;691271;28;858;-88
2021/11/13 01:58:25;;;;;;;;;;;21.50;69.20;;;;;;691317;28;1225;-86
2021/11/13 01:58:49;;;;;;;;;;;21.50;68.20;;;;;;691345;28;815;-86
2021/11/13 01:59:10;;;;;;;;;;;21.50;68.20;;;;;;691251;28;806;-86
2021/11/13 01:59:31;;;;;;;;;;;21.60;68.20;;;;;;691304;28;901;-86
2021/11/13 01:59:52;;;;;;;;;;;21.50;68.20;;;;;;691468;28;826;-87
2021/11/13 02:00:15;;;;;;;;;;;21.50;68.20;;;;;;691357;28;788;-88
2021/11/13 02:00:39;;;;;;;;;;;21.50;68.20;;;;;;691570;28;842;-86
2021/11/13 02:00:59;;;;;;;;;;;21.50;68.20;;;;;;691485;28;830;-87
2021/11/13 02:01:20;;;;;;;;;;;21.50;68.10;;;;;;688622;28;1209;-86
2021/11/13 02:01:41;;;;;;;;;;;21.50;68.20;;;;;;688538;28;1241;-85
2021/11/13 02:02:02;;;;;;;;;;;21.50;68.10;;;;;;688653;28;827;-87
2021/11/13 02:02:22;;;;;;;;;;;21.50;68.10;;;;;;688721;28;827;-87
2021/11/13 02:02:44;;;;;;;;;;;21.50;68.20;;;;;;688561;28;922;-87
2021/11/13 02:03:04;;;;;;;;;;;21.50;68.20;;;;;;689114;28;733;-87
2021/11/13 02:03:25;;;;;;;;;;;21.50;68.20;;;;;;690880;28;1177;-87
2021/11/13 02:03:47;;;;;;;;;;;21.50;68.10;;;;;;688606;28;926;-85
2021/11/13 02:04:07;;;;;;;;;;;21.50;68.40;;;;;;688646;28;851;-87
2021/11/13 02:04:28;;;;;;;;;;;21.50;68.10;;;;;;688679;28;835;-87
2021/11/13 02:04:48;;;;;;;;;;;21.50;68.10;;;;;;688649;28;1911;-88
2021/11/13 02:05:09;;;;;;;;;;;21.50;68.10;;;;;;689029;28;910;-86
2021/11/13 02:05:30;;;;;;;;;;;21.50;68.10;;;;;;691518;28;870;-86
2021/11/13 02:05:51;;;;;;;;;;;21.50;68.20;;;;;;691615;28;910;-87
2021/11/13 02:06:12;;;;;;;;;;;21.50;68.20;;;;;;691485;28;752;-88
2021/11/13 02:06:34;;;;;;;;;;;21.50;68.10;;;;;;691534;28;772;-85
2021/11/13 02:06:54;;;;;;;;;;;21.50;68.20;;;;;;691567;28;1295;-87
2021/11/13 02:07:16;;;;;;;;;;;21.50;68.10;;;;;;688464;28;1235;-86
2021/11/13 02:07:36;;;;;;;;;;;21.50;68.10;;;;;;688529;28;1256;-86
2021/11/13 02:07:57;;;;;;;;;;;21.50;68.20;;;;;;688611;28;882;-86